Time,TemperatureF,DewpointF,PressureIn,WindDirection,WindDirectionDegrees,WindSpeedMPH,WindSpeedGustMPH,Humidity,HourlyPrecipIn,Conditions,Clouds,dailyrainin,SolarRadiationWatts/m^2,SoftwareType,DateUTC
2013-05-12 00:00:00,52.9,52.1,30.16,SSW,197,10.0,11.0,97,0.00,,,0.00,0,Wunderground v.1.15,2013-05-12 07:00:00,
2013-05-12 00:05:00,53.2,52.4,30.16,SSW,208,10.0,11.0,97,0.00,,,0.00,0,Wunderground v.1.15,2013-05-12 07:05:00,
2013-05-12 00:15:00,53.2,52.4,30.16,SSW,202,10.0,11.0,97,0.00,,,0.00,0,Wunderground v.1.15,2013-05-12 07:15:00,
2013-05-12 00:25:00,54.3,53.5,30.16,SSW,199,11.0,13.0,97,0.00,,,0.00,0,Wunderground v.1.15,2013-05-12 07:25:00,
2013-05-12 00:35:00,54.4,53.0,30.16,SSW,202,12.0,12.0,95,0.00,,,0.00,0,Wunderground v.1.15,2013-05-12 07:35:00,
2013-05-12 00:44:00,54.8,53.4,30.16,SSW,193,12.0,12.0,95,0.00,,,0.00,0,Wunderground v.1.15,2013-05-12 07:44:00,
2013-05-12 00:50:00,55.0,53.6,30.17,SSW,197,12.0,13.0,95,0.00,,,0.00,0,Wunderground v.1.15,2013-05-12 07:50:00,
2013-05-12 00:55:00,55.1,53.4,30.17,SSW,203,11.0,13.0,94,0.00,,,0.00,0,Wunderground v.1.15,2013-05-12 07:55:00,
2013-05-12 01:05:00,55.1,53.4,30.16,SSW,192,11.0,12.0,94,0.00,,,0.00,0,Wunderground v.1.15,2013-05-12 08:05:00,
2013-05-12 01:15:00,55.4,53.4,30.16,South,190,12.0,13.0,93,0.00,,,0.00,0,Wunderground v.1.15,2013-05-12 08:15:00,
2013-05-12 01:20:00,55.4,53.4,30.16,SSW,201,12.0,12.0,93,0.00,,,0.00,0,Wunderground v.1.15,2013-05-12 08:20:00,
2013-05-12 01:25:00,55.8,53.8,30.16,SSW,213,12.0,12.0,93,0.00,,,0.00,0,Wunderground v.1.15,2013-05-12 08:25:00,
2013-05-12 01:35:00,55.8,53.8,30.16,SSW,198,12.0,13.0,93,0.00,,,0.00,0,Wunderground v.1.15,2013-05-12 08:35:00,
2013-05-12 01:45:00,55.9,53.9,30.16,South,189,12.0,13.0,93,0.00,,,0.00,0,Wunderground v.1.15,2013-05-12 08:45:00,
2013-05-12 01:50:00,56.0,54.0,30.16,South,186,12.0,13.0,93,0.00,,,0.00,0,Wunderground v.1.15,2013-05-12 08:50:00,
2013-05-12 02:00:00,56.1,54.1,30.15,South,182,14.0,14.0,93,0.00,,,0.00,0,Wunderground v.1.15,2013-05-12 09:00:00,
2013-05-12 02:05:00,56.0,53.7,30.15,SSW,213,14.0,17.0,92,0.00,,,0.00,0,Wunderground v.1.15,2013-05-12 09:05:00,
2013-05-12 02:15:00,56.0,54.0,30.15,SSW,213,15.0,15.0,93,0.00,,,0.00,0,Wunderground v.1.15,2013-05-12 09:15:00,
2013-05-12 02:20:00,56.0,54.0,30.15,SSW,194,14.0,15.0,93,0.00,,,0.00,0,Wunderground v.1.15,2013-05-12 09:20:00,
2013-05-12 02:30:00,55.6,53.6,30.15,SSW,213,12.0,12.0,93,0.00,,,0.00,0,Wunderground v.1.15,2013-05-12 09:30:00,
2013-05-12 02:35:00,55.4,53.1,30.15,SSW,208,11.0,12.0,92,0.00,,,0.00,0,Wunderground v.1.15,2013-05-12 09:35:00,
2013-05-12 02:45:00,55.2,53.2,30.15,SSW,208,9.0,11.0,93,0.00,,,0.00,0,Wunderground v.1.15,2013-05-12 09:45:00,
2013-05-12 02:50:00,55.2,53.2,30.15,SSW,208,9.0,9.0,93,0.00,,,0.00,0,Wunderground v.1.15,2013-05-12 09:50:00,
2013-05-12 03:00:00,55.3,53.3,30.15,SSW,208,9.0,9.0,93,0.00,,,0.00,0,Wunderground v.1.15,2013-05-12 10:00:00,
2013-05-12 03:05:00,56.2,54.5,30.15,SSW,195,10.0,10.0,94,0.00,,,0.00,0,Wunderground v.1.15,2013-05-12 10:05:00,
2013-05-12 03:15:00,56.3,54.3,30.15,SSW,208,11.0,12.0,93,0.00,,,0.00,0,Wunderground v.1.15,2013-05-12 10:15:00,
2013-05-12 03:20:00,56.2,53.9,30.15,SSW,199,10.0,10.0,92,0.00,,,0.00,0,Wunderground v.1.15,2013-05-12 10:20:00,
2013-05-12 03:25:00,56.1,53.8,30.15,SSW,204,10.0,10.0,92,0.00,,,0.00,0,Wunderground v.1.15,2013-05-12 10:25:00,
2013-05-12 03:35:00,55.7,53.7,30.15,SSW,213,5.0,8.0,93,0.00,,,0.00,0,Wunderground v.1.15,2013-05-12 10:35:00,
2013-05-12 03:40:00,55.5,53.5,30.15,SW,222,4.0,7.0,93,0.00,,,0.00,0,Wunderground v.1.15,2013-05-12 10:40:00,
2013-05-12 03:50:00,55.4,53.4,30.15,SW,227,5.0,7.0,93,0.00,,,0.00,0,Wunderground v.1.15,2013-05-12 10:50:00,
2013-05-12 03:55:00,55.3,53.6,30.14,SW,224,6.0,7.0,94,0.00,,,0.00,0,Wunderground v.1.15,2013-05-12 10:55:00,
2013-05-12 04:00:00,55.3,53.6,30.15,SW,233,6.0,7.0,94,0.00,,,0.00,0,Wunderground v.1.15,2013-05-12 11:00:00,
2013-05-12 04:10:00,55.3,53.6,30.15,WSW,252,6.0,7.0,94,0.00,,,0.00,0,Wunderground v.1.15,2013-05-12 11:10:00,
2013-05-12 04:15:00,55.2,53.5,30.15,WSW,243,6.0,7.0,94,0.00,,,0.00,0,Wunderground v.1.15,2013-05-12 11:15:00,
2013-05-12 04:25:00,55.0,53.3,30.15,WSW,247,6.0,6.0,94,0.00,,,0.00,0,Wunderground v.1.15,2013-05-12 11:25:00,
2013-05-12 04:35:00,55.0,53.6,30.15,SW,228,5.0,6.0,95,0.00,,,0.00,0,Wunderground v.1.15,2013-05-12 11:35:00,
2013-05-12 04:40:00,55.0,53.6,30.15,SW,230,5.0,8.0,95,0.00,,,0.00,0,Wunderground v.1.15,2013-05-12 11:40:00,
2013-05-12 04:50:00,55.0,53.6,30.14,SW,228,5.0,5.0,95,0.00,,,0.00,0,Wunderground v.1.15,2013-05-12 11:50:00,
2013-05-12 04:55:00,54.9,53.5,30.14,SW,218,5.0,6.0,95,0.00,,,0.00,0,Wunderground v.1.15,2013-05-12 11:55:00,
2013-05-12 05:05:00,55.0,53.6,30.14,SSW,213,7.0,7.0,95,0.00,,,0.00,0,Wunderground v.1.15,2013-05-12 12:05:00,
2013-05-12 05:10:00,55.1,53.7,30.14,WSW,241,7.0,7.0,95,0.00,,,0.00,0,Wunderground v.1.15,2013-05-12 12:10:00,
2013-05-12 05:20:00,55.1,53.7,30.15,SW,218,6.0,6.0,95,0.00,,,0.00,0,Wunderground v.1.15,2013-05-12 12:20:00,
2013-05-12 05:25:00,55.1,53.7,30.14,WSW,237,5.0,6.0,95,0.00,,,0.00,0,Wunderground v.1.15,2013-05-12 12:25:00,
2013-05-12 05:34:00,55.1,53.7,30.15,SW,230,5.0,5.0,95,0.00,,,0.00,0,Wunderground v.1.15,2013-05-12 12:34:00,
2013-05-12 05:40:00,55.1,53.7,30.15,WSW,239,5.0,5.0,95,0.00,,,0.00,0,Wunderground v.1.15,2013-05-12 12:40:00,
2013-05-12 05:45:00,55.1,53.7,30.15,SSW,213,5.0,5.0,95,0.00,,,0.00,0,Wunderground v.1.15,2013-05-12 12:45:00,
2013-05-12 05:55:00,55.2,53.8,30.16,SW,230,6.0,7.0,95,0.00,,,0.00,0,Wunderground v.1.15,2013-05-12 12:55:00,
2013-05-12 06:00:00,55.2,53.8,30.16,WSW,242,6.0,6.0,95,0.00,,,0.00,0,Wunderground v.1.15,2013-05-12 13:00:00,
2013-05-12 06:05:00,55.1,53.7,30.16,SW,234,5.0,6.0,95,0.00,,,0.00,0,Wunderground v.1.15,2013-05-12 13:05:00,
2013-05-12 06:14:00,55.1,53.7,30.16,WSW,239,5.0,5.0,95,0.00,,,0.00,7,Wunderground v.1.15,2013-05-12 13:14:00,
2013-05-12 06:20:00,55.0,53.6,30.17,West,262,5.0,9.0,95,0.00,,,0.00,9,Wunderground v.1.15,2013-05-12 13:20:00,
2013-05-12 06:25:00,54.8,53.4,30.17,WSW,245,7.0,9.0,95,0.00,,,0.00,14,Wunderground v.1.15,2013-05-12 13:25:00,
2013-05-12 06:35:00,54.9,53.5,30.17,WSW,239,5.0,8.0,95,0.00,,,0.00,19,Wunderground v.1.15,2013-05-12 13:35:00,
2013-05-12 06:40:00,55.0,53.6,30.17,SW,225,5.0,6.0,95,0.00,,,0.00,26,Wunderground v.1.15,2013-05-12 13:40:00,
2013-05-12 06:45:00,54.9,53.5,30.17,SW,229,4.0,6.0,95,0.00,,,0.00,35,Wunderground v.1.15,2013-05-12 13:45:00,
2013-05-12 06:55:00,55.1,53.7,30.17,WSW,237,4.0,4.0,95,0.00,,,0.00,42,Wunderground v.1.15,2013-05-12 13:55:00,
2013-05-12 07:00:00,55.2,53.8,30.17,SW,234,4.0,4.0,95,0.00,,,0.00,49,Wunderground v.1.15,2013-05-12 14:00:00,
2013-05-12 07:10:00,55.1,53.7,30.17,WSW,253,4.0,6.0,95,0.00,,,0.00,63,Wunderground v.1.15,2013-05-12 14:10:00,
2013-05-12 07:20:00,55.3,54.2,30.17,WSW,253,3.0,3.0,96,0.00,,,0.00,69,Wunderground v.1.15,2013-05-12 14:20:00,
2013-05-12 07:25:00,55.3,54.2,30.17,West,264,3.0,3.0,96,0.00,,,0.00,81,Wunderground v.1.15,2013-05-12 14:25:00,
2013-05-12 07:35:00,55.6,54.5,30.18,WSW,241,3.0,4.0,96,0.00,,,0.00,98,Wunderground v.1.15,2013-05-12 14:35:00,
2013-05-12 07:40:00,55.4,54.3,30.18,WSW,239,4.0,4.0,96,0.00,,,0.00,113,Wunderground v.1.15,2013-05-12 14:40:00,
2013-05-12 07:50:00,55.3,54.2,30.18,SW,236,4.0,4.0,96,0.00,,,0.00,125,Wunderground v.1.15,2013-05-12 14:50:00,
2013-05-12 07:55:00,55.3,54.2,30.18,SW,232,4.0,4.0,96,0.00,,,0.00,151,Wunderground v.1.15,2013-05-12 14:55:00,
2013-05-12 08:00:00,55.6,54.5,30.18,WSW,241,4.0,4.0,96,0.00,,,0.00,178,Wunderground v.1.15,2013-05-12 15:00:00,
2013-05-12 08:10:00,55.8,54.4,30.18,SW,232,4.0,4.0,95,0.00,,,0.00,221,Wunderground v.1.15,2013-05-12 15:10:00,
2013-05-12 08:20:00,56.3,55.2,30.18,WSW,249,4.0,4.0,96,0.00,,,0.00,202,Wunderground v.1.15,2013-05-12 15:20:00,
2013-05-12 08:25:00,56.1,54.7,30.18,WSW,255,4.0,4.0,95,0.00,,,0.00,295,Wunderground v.1.15,2013-05-12 15:25:00,
2013-05-12 08:34:00,56.2,54.8,30.18,WSW,245,5.0,5.0,95,0.00,,,0.00,353,Wunderground v.1.15,2013-05-12 15:34:00,
2013-05-12 08:40:00,56.4,55.0,30.18,WSW,250,5.0,7.0,95,0.00,,,0.00,401,Wunderground v.1.15,2013-05-12 15:40:00,
2013-05-12 08:45:00,56.4,54.7,30.18,WSW,253,5.0,7.0,94,0.00,,,0.00,269,Wunderground v.1.15,2013-05-12 15:45:00,
2013-05-12 08:55:00,56.4,54.7,30.18,West,259,5.0,8.0,94,0.00,,,0.00,496,Wunderground v.1.15,2013-05-12 15:55:00,
2013-05-12 09:05:00,56.0,54.3,30.19,SW,228,6.0,7.0,94,0.00,,,0.00,403,Wunderground v.1.15,2013-05-12 16:05:00,
2013-05-12 09:10:00,55.9,54.2,30.19,West,262,7.0,7.0,94,0.00,,,0.00,411,Wunderground v.1.15,2013-05-12 16:10:00,
2013-05-12 09:15:00,56.0,54.3,30.19,West,270,6.0,11.0,94,0.00,,,0.00,490,Wunderground v.1.15,2013-05-12 16:15:00,
2013-05-12 09:25:00,55.8,54.1,30.19,WSW,254,9.0,12.0,94,0.00,,,0.00,536,Wunderground v.1.15,2013-05-12 16:25:00,
2013-05-12 09:35:00,55.5,53.8,30.19,WSW,243,9.0,10.0,94,0.00,,,0.00,566,Wunderground v.1.15,2013-05-12 16:35:00,
2013-05-12 09:40:00,55.2,53.5,30.19,WSW,255,10.0,12.0,94,0.00,,,0.00,578,Wunderground v.1.15,2013-05-12 16:40:00,
2013-05-12 09:50:00,55.9,54.2,30.19,WSW,248,9.0,9.0,94,0.00,,,0.00,605,Wunderground v.1.15,2013-05-12 16:50:00,
2013-05-12 09:55:00,56.0,54.3,30.18,SSW,213,8.0,9.0,94,0.00,,,0.00,647,Wunderground v.1.15,2013-05-12 16:55:00,
2013-05-12 10:05:00,56.7,55.0,30.18,West,267,7.0,8.0,94,0.00,,,0.00,663,Wunderground v.1.15,2013-05-12 17:05:00,
2013-05-12 10:15:00,56.6,54.9,30.19,West,272,8.0,9.0,94,0.00,,,0.00,682,Wunderground v.1.15,2013-05-12 17:15:00,
2013-05-12 10:20:00,56.0,54.0,30.18,SW,235,8.0,9.0,93,0.00,,,0.00,693,Wunderground v.1.15,2013-05-12 17:20:00,
2013-05-12 10:30:00,56.7,54.4,30.18,SW,232,7.0,9.0,92,0.00,,,0.00,714,Wunderground v.1.15,2013-05-12 17:30:00,
2013-05-12 10:35:00,56.7,54.7,30.18,SW,218,8.0,10.0,93,0.00,,,0.00,726,Wunderground v.1.15,2013-05-12 17:35:00,
2013-05-12 10:45:00,58.0,56.0,30.18,SW,232,7.0,9.0,93,0.00,,,0.00,752,Wunderground v.1.15,2013-05-12 17:45:00,
2013-05-12 10:50:00,58.5,56.2,30.18,SW,234,6.0,6.0,92,0.00,,,0.00,765,Wunderground v.1.15,2013-05-12 17:50:00,
2013-05-12 11:00:00,58.7,55.8,30.18,SSW,213,7.0,9.0,90,0.00,,,0.00,789,Wunderground v.1.15,2013-05-12 18:00:00,
2013-05-12 11:05:00,59.1,56.5,30.18,West,261,7.0,9.0,91,0.00,,,0.00,803,Wunderground v.1.15,2013-05-12 18:05:00,
2013-05-12 12:04:00,58.0,56.0,30.18,SSW,213,12.0,12.0,93,0.00,,,0.00,898,Wunderground v.1.15,2013-05-12 19:04:00,
2013-05-12 12:09:00,57.9,55.6,30.17,West,263,12.0,17.0,92,0.00,,,0.00,937,Wunderground v.1.15,2013-05-12 19:09:00,
2013-05-12 12:15:00,58.0,55.7,30.17,WSW,237,12.0,17.0,92,0.00,,,0.00,907,Wunderground v.1.15,2013-05-12 19:15:00,
2013-05-12 12:20:00,58.6,56.6,30.17,SW,232,11.0,11.0,93,0.00,,,0.00,916,Wunderground v.1.15,2013-05-12 19:20:00,
2013-05-12 12:30:00,59.4,57.1,30.17,WSW,253,8.0,8.0,92,0.00,,,0.00,909,Wunderground v.1.15,2013-05-12 19:30:00,
2013-05-12 12:40:00,59.7,57.1,30.17,SSW,213,9.0,9.0,91,0.00,,,0.00,926,Wunderground v.1.15,2013-05-12 19:40:00,
2013-05-12 12:45:00,59.9,57.3,30.17,SW,228,10.0,14.0,91,0.00,,,0.00,935,Wunderground v.1.15,2013-05-12 19:45:00,
2013-05-12 12:55:00,59.8,56.9,30.17,SW,226,11.0,11.0,90,0.00,,,0.00,921,Wunderground v.1.15,2013-05-12 19:55:00,
2013-05-12 13:05:00,59.6,56.7,30.16,SW,222,12.0,12.0,90,0.00,,,0.00,956,Wunderground v.1.15,2013-05-12 20:05:00,
2013-05-12 13:15:00,60.5,57.6,30.16,SW,218,10.0,16.0,90,0.00,,,0.00,947,Wunderground v.1.15,2013-05-12 20:15:00,
2013-05-12 13:20:00,60.7,57.7,30.16,SW,218,10.0,10.0,90,0.00,,,0.00,944,Wunderground v.1.15,2013-05-12 20:20:00,
2013-05-12 13:30:00,61.5,58.5,30.15,SSW,213,9.0,10.0,90,0.00,,,0.00,932,Wunderground v.1.15,2013-05-12 20:30:00,
2013-05-12 13:35:00,62.0,58.7,30.15,SW,218,9.0,10.0,89,0.00,,,0.00,947,Wunderground v.1.15,2013-05-12 20:35:00,
2013-05-12 13:45:00,62.9,59.0,30.15,SSW,204,8.0,10.0,87,0.00,,,0.00,954,Wunderground v.1.15,2013-05-12 20:45:00,
2013-05-12 13:50:00,62.9,58.6,30.15,SSW,203,8.0,9.0,86,0.00,,,0.00,953,Wunderground v.1.15,2013-05-12 20:50:00,
2013-05-12 14:00:00,62.7,58.5,30.15,SW,218,8.0,8.0,86,0.00,,,0.00,954,Wunderground v.1.15,2013-05-12 21:00:00,
2013-05-12 14:09:00,62.5,58.3,30.15,SSW,213,8.0,8.0,86,0.00,,,0.00,937,Wunderground v.1.15,2013-05-12 21:09:00,
2013-05-12 14:15:00,62.3,58.4,30.15,SW,228,8.0,8.0,87,0.00,,,0.00,951,Wunderground v.1.15,2013-05-12 21:15:00,
2013-05-12 14:20:00,62.0,57.8,30.14,SSW,213,9.0,11.0,86,0.00,,,0.00,930,Wunderground v.1.15,2013-05-12 21:20:00,
2013-05-12 14:30:00,62.0,58.1,30.14,SSW,213,9.0,9.0,87,0.00,,,0.00,874,Wunderground v.1.15,2013-05-12 21:30:00,
2013-05-12 14:40:00,61.9,58.0,30.14,SW,218,10.0,10.0,87,0.00,,,0.00,900,Wunderground v.1.15,2013-05-12 21:40:00,
2013-05-12 14:45:00,62.0,58.4,30.13,SSW,213,9.0,10.0,88,0.00,,,0.00,882,Wunderground v.1.15,2013-05-12 21:45:00,
2013-05-12 14:55:00,62.4,58.5,30.13,SSW,201,8.0,9.0,87,0.00,,,0.00,851,Wunderground v.1.15,2013-05-12 21:55:00,
2013-05-12 15:00:00,62.6,58.7,30.13,SW,235,8.0,8.0,87,0.00,,,0.00,805,Wunderground v.1.15,2013-05-12 22:00:00,
2013-05-12 15:10:00,63.2,58.9,30.12,SW,218,7.0,7.0,86,0.00,,,0.00,870,Wunderground v.1.15,2013-05-12 22:10:00,
2013-05-12 15:15:00,63.5,58.9,30.12,SSW,213,7.0,8.0,85,0.00,,,0.00,872,Wunderground v.1.15,2013-05-12 22:15:00,
2013-05-12 15:25:00,63.5,58.9,30.12,SSW,213,8.0,8.0,85,0.00,,,0.00,826,Wunderground v.1.15,2013-05-12 22:25:00,
2013-05-12 15:30:00,63.8,58.9,30.11,WSW,243,7.0,10.0,84,0.00,,,0.00,802,Wunderground v.1.15,2013-05-12 22:30:00,
2013-05-12 15:35:00,63.8,58.9,30.11,WSW,244,6.0,10.0,84,0.00,,,0.00,793,Wunderground v.1.15,2013-05-12 22:35:00,
2013-05-12 15:45:00,63.8,58.5,30.11,SSW,213,6.0,8.0,83,0.00,,,0.00,772,Wunderground v.1.15,2013-05-12 22:45:00,
2013-05-12 15:50:00,63.4,58.1,30.11,SW,218,6.0,9.0,83,0.00,,,0.00,770,Wunderground v.1.15,2013-05-12 22:50:00,
2013-05-12 16:00:00,62.4,57.8,30.10,SSW,213,8.0,9.0,85,0.00,,,0.00,763,Wunderground v.1.15,2013-05-12 23:00:00,
2013-05-12 16:05:00,62.1,57.5,30.10,SSW,213,8.0,9.0,85,0.00,,,0.00,740,Wunderground v.1.15,2013-05-12 23:05:00,
2013-05-12 16:10:00,61.9,57.7,30.10,SSW,213,8.0,10.0,86,0.00,,,0.00,747,Wunderground v.1.15,2013-05-12 23:10:00,
2013-05-12 16:20:00,62.3,58.1,30.10,SW,218,7.0,7.0,86,0.00,,,0.00,698,Wunderground v.1.15,2013-05-12 23:20:00,
2013-05-12 16:25:00,62.5,58.3,30.10,SW,218,7.0,10.0,86,0.00,,,0.00,664,Wunderground v.1.15,2013-05-12 23:25:00,
2013-05-12 16:35:00,62.0,58.1,30.10,SSW,213,7.0,8.0,87,0.00,,,0.00,670,Wunderground v.1.15,2013-05-12 23:35:00,
2013-05-12 16:40:00,62.0,58.1,30.09,SSW,213,8.0,8.0,87,0.00,,,0.00,666,Wunderground v.1.15,2013-05-12 23:40:00,
2013-05-12 16:45:00,62.1,58.2,30.09,SSW,213,8.0,8.0,87,0.00,,,0.00,645,Wunderground v.1.15,2013-05-12 23:45:00,
2013-05-12 16:55:00,61.9,57.7,30.09,SSW,213,8.0,9.0,86,0.00,,,0.00,615,Wunderground v.1.15,2013-05-12 23:55:00,
2013-05-12 17:00:00,62.0,57.4,30.09,SSW,213,8.0,8.0,85,0.00,,,0.00,598,Wunderground v.1.15,2013-05-13 00:00:00,
2013-05-12 17:05:00,61.8,57.2,30.09,SSW,213,8.0,8.0,85,0.00,,,0.00,591,Wunderground v.1.15,2013-05-13 00:05:00,
2013-05-12 17:15:00,60.9,57.0,30.09,SW,218,10.0,10.0,87,0.00,,,0.00,559,Wunderground v.1.15,2013-05-13 00:15:00,
2013-05-12 17:24:00,60.7,57.1,30.09,SSW,213,9.0,10.0,88,0.00,,,0.00,527,Wunderground v.1.15,2013-05-13 00:24:00,
2013-05-12 17:30:00,60.8,56.9,30.09,SSW,213,9.0,10.0,87,0.00,,,0.00,512,Wunderground v.1.15,2013-05-13 00:30:00,
2013-05-12 17:35:00,60.3,56.4,30.09,SSW,213,10.0,10.0,87,0.00,,,0.00,494,Wunderground v.1.15,2013-05-13 00:35:00,
2013-05-12 17:45:00,60.1,56.8,30.08,SSW,213,10.0,11.0,89,0.00,,,0.00,464,Wunderground v.1.15,2013-05-13 00:45:00,
2013-05-12 17:50:00,60.3,57.0,30.08,SW,218,9.0,9.0,89,0.00,,,0.00,448,Wunderground v.1.15,2013-05-13 00:50:00,
2013-05-12 17:59:00,60.8,56.9,30.08,SSW,213,8.0,12.0,87,0.00,,,0.00,415,Wunderground v.1.15,2013-05-13 00:59:00,
2013-05-12 18:05:00,60.2,56.6,30.08,SSW,213,9.0,12.0,88,0.00,,,0.00,396,Wunderground v.1.15,2013-05-13 01:05:00,
2013-05-12 18:10:00,59.7,56.5,30.08,SSW,203,10.0,12.0,89,0.00,,,0.00,380,Wunderground v.1.15,2013-05-13 01:10:00,
2013-05-12 18:20:00,59.5,56.6,30.08,South,191,10.0,10.0,90,0.00,,,0.00,348,Wunderground v.1.15,2013-05-13 01:20:00,
2013-05-12 18:25:00,59.7,56.8,30.08,South,187,9.0,10.0,90,0.00,,,0.00,330,Wunderground v.1.15,2013-05-13 01:25:00,
2013-05-12 18:35:00,59.6,56.4,30.07,SSW,213,9.0,9.0,89,0.00,,,0.00,295,Wunderground v.1.15,2013-05-13 01:35:00,
2013-05-12 18:40:00,59.9,57.0,30.07,South,183,9.0,9.0,90,0.00,,,0.00,278,Wunderground v.1.15,2013-05-13 01:40:00,
2013-05-12 18:45:00,60.1,57.2,30.07,SSW,195,9.0,9.0,90,0.00,,,0.00,260,Wunderground v.1.15,2013-05-13 01:45:00,
2013-05-12 18:55:00,60.6,57.0,30.07,SSW,213,8.0,8.0,88,0.00,,,0.00,225,Wunderground v.1.15,2013-05-13 01:55:00,
2013-05-12 19:00:00,60.4,57.1,30.07,SSW,201,8.0,8.0,89,0.00,,,0.00,204,Wunderground v.1.15,2013-05-13 02:00:00,
2013-05-12 19:10:00,60.4,57.5,30.07,SSW,213,8.0,8.0,90,0.00,,,0.00,163,Wunderground v.1.15,2013-05-13 02:10:00,
2013-05-12 19:15:00,60.4,57.5,30.07,SSW,213,7.0,10.0,90,0.00,,,0.00,142,Wunderground v.1.15,2013-05-13 02:15:00,
2013-05-12 19:24:00,59.9,57.0,30.07,SSW,213,9.0,9.0,90,0.00,,,0.00,107,Wunderground v.1.15,2013-05-13 02:24:00,
2013-05-12 19:30:00,60.0,57.4,30.07,SW,229,8.0,8.0,91,0.00,,,0.00,90,Wunderground v.1.15,2013-05-13 02:30:00,
2013-05-12 19:35:00,60.3,57.7,30.06,SSW,213,7.0,8.0,91,0.00,,,0.00,72,Wunderground v.1.15,2013-05-13 02:35:00,
2013-05-12 19:45:00,60.9,57.9,30.06,SSW,213,4.0,5.0,90,0.00,,,0.00,42,Wunderground v.1.15,2013-05-13 02:45:00,
2013-05-12 19:50:00,61.0,57.7,30.06,SSW,213,3.0,5.0,89,0.00,,,0.00,32,Wunderground v.1.15,2013-05-13 02:50:00,
2013-05-12 20:00:00,61.0,57.7,30.06,SW,228,4.0,4.0,89,0.00,,,0.00,14,Wunderground v.1.15,2013-05-13 03:00:00,
2013-05-12 20:05:00,61.0,57.7,30.06,WSW,245,4.0,4.0,89,0.00,,,0.00,7,Wunderground v.1.15,2013-05-13 03:05:00,
2013-05-12 20:15:00,60.7,57.1,30.06,SW,235,4.0,5.0,88,0.00,,,0.00,0,Wunderground v.1.15,2013-05-13 03:15:00,
2013-05-12 20:24:00,60.5,56.6,30.07,WSW,240,4.0,4.0,87,0.00,,,0.00,0,Wunderground v.1.15,2013-05-13 03:24:00,
2013-05-12 20:30:00,60.4,56.5,30.06,WSW,243,4.0,4.0,87,0.00,,,0.00,0,Wunderground v.1.15,2013-05-13 03:30:00,
2013-05-12 20:35:00,60.4,56.8,30.06,SW,218,3.0,5.0,88,0.00,,,0.00,0,Wunderground v.1.15,2013-05-13 03:35:00,
2013-05-12 20:44:00,60.0,56.7,30.06,SW,226,5.0,6.0,89,0.00,,,0.00,0,Wunderground v.1.15,2013-05-13 03:44:00,
2013-05-12 20:50:00,59.5,56.3,30.06,SW,218,6.0,6.0,89,0.00,,,0.00,0,Wunderground v.1.15,2013-05-13 03:50:00,
2013-05-12 20:59:00,58.9,56.3,30.07,SSW,196,9.0,12.0,91,0.00,,,0.00,0,Wunderground v.1.15,2013-05-13 03:59:00,
2013-05-12 21:05:00,58.4,56.1,30.07,SSW,203,11.0,13.0,92,0.00,,,0.00,0,Wunderground v.1.15,2013-05-13 04:05:00,
2013-05-12 21:10:00,58.1,55.8,30.07,SSW,195,11.0,11.0,92,0.00,,,0.00,0,Wunderground v.1.15,2013-05-13 04:10:00,
2013-05-12 21:19:00,57.7,55.4,30.07,SW,222,11.0,12.0,92,0.00,,,0.00,0,Wunderground v.1.15,2013-05-13 04:19:00,
2013-05-12 21:25:00,57.3,55.0,30.07,SSW,213,12.0,12.0,92,0.00,,,0.00,0,Wunderground v.1.15,2013-05-13 04:25:00,
2013-05-12 21:30:00,57.4,55.1,30.08,SSW,208,11.0,11.0,92,0.00,,,0.00,0,Wunderground v.1.15,2013-05-13 04:30:00,
2013-05-12 21:34:00,57.3,55.0,30.08,SSW,213,10.0,11.0,92,0.00,,,0.00,0,Wunderground v.1.15,2013-05-13 04:34:00,
2013-05-12 21:40:00,57.3,55.0,30.08,SW,222,11.0,11.0,92,0.00,,,0.00,0,Wunderground v.1.15,2013-05-13 04:40:00,
2013-05-12 21:45:00,57.2,54.9,30.08,SW,233,10.0,11.0,92,0.00,,,0.00,0,Wunderground v.1.15,2013-05-13 04:45:00,
2013-05-12 21:50:00,57.2,54.9,30.08,SW,218,9.0,10.0,92,0.00,,,0.00,0,Wunderground v.1.15,2013-05-13 04:50:00,
2013-05-12 22:00:00,57.2,54.9,30.08,SW,231,9.0,12.0,92,0.00,,,0.00,0,Wunderground v.1.15,2013-05-13 05:00:00,
2013-05-12 22:05:00,57.3,55.0,30.08,WSW,258,8.0,12.0,92,0.00,,,0.00,0,Wunderground v.1.15,2013-05-13 05:05:00,
2013-05-12 22:15:00,57.5,55.2,30.08,WSW,237,8.0,9.0,92,0.00,,,0.00,0,Wunderground v.1.15,2013-05-13 05:15:00,
2013-05-12 22:20:00,57.3,55.0,30.09,SW,222,7.0,7.0,92,0.00,,,0.00,0,Wunderground v.1.15,2013-05-13 05:20:00,
2013-05-12 22:24:00,57.1,54.8,30.09,SW,218,8.0,8.0,92,0.00,,,0.00,0,Wunderground v.1.15,2013-05-13 05:24:00,
2013-05-12 22:29:00,56.7,54.4,30.09,SW,224,9.0,9.0,92,0.00,,,0.00,0,Wunderground v.1.15,2013-05-13 05:29:00,
2013-05-12 22:34:00,56.4,54.1,30.09,SSW,213,9.0,11.0,92,0.00,,,0.00,0,Wunderground v.1.15,2013-05-13 05:34:00,
2013-05-12 22:40:00,56.2,53.9,30.09,SW,226,9.0,14.0,92,0.00,,,0.00,0,Wunderground v.1.15,2013-05-13 05:40:00,
2013-05-12 22:49:00,55.8,53.8,30.09,SSW,213,10.0,10.0,93,0.00,,,0.00,0,Wunderground v.1.15,2013-05-13 05:49:00,
2013-05-12 22:55:00,55.6,53.6,30.09,SSW,213,9.0,10.0,93,0.00,,,0.00,0,Wunderground v.1.15,2013-05-13 05:55:00,
2013-05-12 23:04:00,55.3,53.3,30.09,WSW,242,10.0,11.0,93,0.00,,,0.00,0,Wunderground v.1.15,2013-05-13 06:04:00,
2013-05-12 23:10:00,55.2,53.2,30.08,SW,231,10.0,10.0,93,0.00,,,0.00,0,Wunderground v.1.15,2013-05-13 06:10:00,
2013-05-12 23:15:00,55.1,53.4,30.08,WSW,248,9.0,10.0,94,0.00,,,0.00,0,Wunderground v.1.15,2013-05-13 06:15:00,
2013-05-12 23:24:00,54.8,53.1,30.08,WSW,237,9.0,11.0,94,0.00,,,0.00,0,Wunderground v.1.15,2013-05-13 06:24:00,
2013-05-12 23:30:00,54.9,53.2,30.08,WSW,241,8.0,8.0,94,0.00,,,0.00,0,Wunderground v.1.15,2013-05-13 06:30:00,
2013-05-12 23:39:00,54.5,53.1,30.08,SW,227,9.0,9.0,95,0.00,,,0.00,0,Wunderground v.1.15,2013-05-13 06:39:00,
2013-05-12 23:44:00,54.6,53.2,30.09,SW,232,9.0,9.0,95,0.00,,,0.00,0,Wunderground v.1.15,2013-05-13 06:44:00,
2013-05-12 23:50:00,54.2,52.8,30.09,SW,230,9.0,11.0,95,0.00,,,0.00,0,Wunderground v.1.15,2013-05-13 06:50:00,
2013-05-12 23:59:00,54.0,52.6,30.09,WSW,249,10.0,12.0,95,0.00,,,0.00,0,Wunderground v.1.15,2013-05-13 06:59:00,